createdAt,value
2023-02-18T00:00:28.582Z,5.85
2023-02-18T00:03:51.616Z,5.55
2023-02-18T00:07:13.490Z,5.53
2023-02-18T00:10:40.388Z,5.63
2023-02-18T00:14:12.209Z,5.35
2023-02-18T00:17:38.350Z,5.57
2023-02-18T00:21:05.722Z,5.68
2023-02-18T00:24:28.658Z,5.75
2023-02-18T00:27:51.647Z,5.30
2023-02-18T00:31:21.203Z,4.85
2023-02-18T00:34:49.968Z,4.20
2023-02-18T00:38:12.128Z,4.72
2023-02-18T00:41:35.643Z,4.40
2023-02-18T00:44:58.574Z,3.88
2023-02-18T00:48:20.672Z,3.80
2023-02-18T00:51:43.853Z,3.75
2023-02-18T00:55:06.281Z,4.05
2023-02-18T00:58:29.495Z,4.43
2023-02-18T01:01:51.440Z,4.63
2023-02-18T01:05:13.321Z,3.63
2023-02-18T01:08:37.171Z,4.53
2023-02-18T01:12:00.118Z,3.77
2023-02-18T01:15:23.107Z,3.80
2023-02-18T01:18:46.080Z,3.55
2023-02-18T01:22:09.183Z,3.30
2023-02-18T01:25:38.359Z,3.63
2023-02-18T01:29:00.357Z,2.90
2023-02-18T01:32:22.891Z,3.37
2023-02-18T01:35:45.605Z,3.00
2023-02-18T01:39:07.549Z,3.27
2023-02-18T01:42:30.163Z,2.83
2023-02-18T01:46:17.364Z,2.70
2023-02-18T01:49:53.589Z,2.50
2023-02-18T01:53:27.132Z,2.35
2023-02-18T01:57:13.879Z,2.20
2023-02-18T02:00:36.995Z,2.13
2023-02-18T02:04:01.816Z,2.05
2023-02-18T02:07:29.231Z,2.38
2023-02-18T02:11:55.334Z,2.03
2023-02-18T02:15:47.726Z,2.10
2023-02-18T02:19:34.334Z,1.87
2023-02-18T02:23:39.557Z,1.93
2023-02-18T02:27:24.320Z,2.40
2023-02-18T02:31:16.846Z,3.33
2023-02-18T02:35:01.347Z,4.20
2023-02-18T02:38:43.992Z,3.60
2023-02-18T02:42:41.409Z,3.33
2023-02-18T02:46:18.312Z,4.15
2023-02-18T02:50:00.355Z,4.22
2023-02-18T02:53:28.743Z,4.43
2023-02-18T02:57:02.195Z,4.78
2023-02-18T03:01:08.479Z,4.10
2023-02-18T03:04:59.758Z,2.60
2023-02-18T03:08:50.566Z,2.55
2023-02-18T03:12:43.731Z,2.83
2023-02-18T03:16:21.896Z,2.93
2023-02-18T03:20:02.261Z,2.90
2023-02-18T03:23:58.317Z,3.00
2023-02-18T03:27:31.851Z,3.53
2023-02-18T03:31:06.314Z,3.70
2023-02-18T03:34:40.874Z,3.63
2023-02-18T03:38:23.646Z,3.80
2023-02-18T03:41:46.491Z,4.13
2023-02-18T03:45:08.535Z,3.80
2023-02-18T03:48:30.378Z,4.17
2023-02-18T03:51:52.332Z,3.50
2023-02-18T03:55:14.535Z,3.72
2023-02-18T03:58:36.435Z,3.73
2023-02-18T04:01:58.289Z,4.43
2023-02-18T04:05:21.237Z,3.90
2023-02-18T04:08:43.252Z,4.07
2023-02-18T04:12:05.187Z,4.00
2023-02-18T04:15:36.920Z,3.97
2023-02-18T04:18:59.950Z,3.73
2023-02-18T04:22:27.776Z,3.33
2023-02-18T04:25:52.784Z,3.80
2023-02-18T04:29:14.848Z,3.63
2023-02-18T04:32:38.793Z,3.75
2023-02-18T04:36:00.661Z,3.67
2023-02-18T04:39:22.572Z,4.23
2023-02-18T04:42:44.327Z,4.30
2023-02-18T04:46:07.590Z,4.27
2023-02-18T04:49:29.684Z,3.70
2023-02-18T04:52:51.546Z,4.28
2023-02-18T04:56:14.976Z,4.00
2023-02-18T04:59:37.049Z,4.30
2023-02-18T05:02:58.856Z,5.03
2023-02-18T05:06:20.697Z,4.10
2023-02-18T05:09:42.701Z,4.57
2023-02-18T05:13:04.641Z,4.28
2023-02-18T05:16:37.516Z,5.13
2023-02-18T05:19:59.459Z,5.07
2023-02-18T05:23:21.327Z,4.93
2023-02-18T05:26:43.148Z,4.78
2023-02-18T05:30:05.997Z,5.28
2023-02-18T05:33:27.855Z,5.38
2023-02-18T05:36:56.601Z,5.10
2023-02-18T05:40:18.534Z,5.57
2023-02-18T05:43:59.171Z,5.43
2023-02-18T05:47:22.075Z,5.10
2023-02-18T05:50:43.923Z,5.28
2023-02-18T05:54:06.798Z,5.37
2023-02-18T05:57:28.668Z,4.87
2023-02-18T06:00:50.448Z,5.13
2023-02-18T06:04:12.733Z,4.17
2023-02-18T06:07:34.811Z,4.40
2023-02-18T06:10:56.732Z,4.00
2023-02-18T06:14:21.664Z,4.00
2023-02-18T06:17:44.632Z,4.13
2023-02-18T06:21:06.852Z,3.60
2023-02-18T06:24:28.682Z,3.97
2023-02-18T06:27:50.812Z,3.10
2023-02-18T06:31:12.795Z,3.27
2023-02-18T06:34:35.722Z,3.40
2023-02-18T06:37:57.564Z,2.77
2023-02-18T06:41:19.470Z,2.30
2023-02-18T06:44:43.381Z,2.37
2023-02-18T06:48:05.426Z,2.40
2023-02-18T06:51:27.301Z,2.10
2023-02-18T06:54:49.104Z,2.60
2023-02-18T06:58:12.541Z,2.50
2023-02-18T07:01:35.531Z,2.40
2023-02-18T07:04:59.406Z,2.80
2023-02-18T07:08:21.654Z,2.30
2023-02-18T07:11:43.527Z,2.97
2023-02-18T07:15:05.785Z,2.53
2023-02-18T07:18:27.646Z,2.60
2023-02-18T07:21:49.574Z,2.53
2023-02-18T07:25:18.519Z,2.63
2023-02-18T07:28:41.731Z,2.40
2023-02-18T07:32:03.836Z,2.80
2023-02-18T07:35:25.728Z,2.60
2023-02-18T07:38:47.630Z,2.50
2023-02-18T07:42:11.660Z,2.70
2023-02-18T07:45:33.593Z,2.92
2023-02-18T07:48:57.569Z,2.57
2023-02-18T07:52:20.485Z,2.75
2023-02-18T07:55:51.382Z,2.60
2023-02-18T07:59:13.865Z,2.83
2023-02-18T08:02:35.636Z,2.93
2023-02-18T08:05:58.862Z,3.00
2023-02-18T08:09:20.666Z,3.70
2023-02-18T08:12:42.431Z,3.28
2023-02-18T08:16:04.646Z,3.23
2023-02-18T08:19:28.497Z,3.40
2023-02-18T08:22:50.384Z,3.70
2023-02-18T08:26:13.336Z,3.60
2023-02-18T08:29:38.920Z,2.90
2023-02-18T08:33:01.804Z,3.00
2023-02-18T08:36:24.826Z,2.95
2023-02-18T08:39:48.751Z,2.43
2023-02-18T08:43:18.818Z,3.03
2023-02-18T08:46:48.291Z,3.45
2023-02-18T08:50:10.601Z,2.30
2023-02-18T08:53:33.435Z,1.60
2023-02-18T08:56:59.972Z,1.90
2023-02-18T09:00:23.634Z,1.67
2023-02-18T09:03:48.884Z,1.58
2023-02-18T09:07:16.578Z,1.40
2023-02-18T09:10:46.288Z,1.80
2023-02-18T09:14:09.365Z,2.22
2023-02-18T09:17:34.492Z,2.10
2023-02-18T09:21:09.733Z,1.85
2023-02-18T09:24:41.706Z,2.03
2023-02-18T09:28:05.716Z,2.08
2023-02-18T09:31:29.054Z,1.80
2023-02-18T09:34:58.856Z,2.17
2023-02-18T09:38:20.790Z,1.90
2023-02-18T09:41:52.579Z,2.10
2023-02-18T09:45:16.458Z,1.67
2023-02-18T09:48:38.479Z,1.80
2023-02-18T09:52:14.166Z,2.15
2023-02-18T09:55:41.288Z,1.95
2023-02-18T09:59:11.219Z,2.22
2023-02-18T10:02:38.034Z,2.10
2023-02-18T10:06:22.464Z,1.98
2023-02-18T10:09:46.220Z,4.20
2023-02-18T10:13:25.080Z,2.85
2023-02-18T10:16:52.511Z,3.00
2023-02-18T10:20:23.249Z,2.58
2023-02-18T10:24:09.147Z,2.22
2023-02-18T10:27:38.835Z,2.50
2023-02-18T10:31:24.208Z,2.35
2023-02-18T10:35:31.022Z,2.17
2023-02-18T10:40:00.284Z,2.25
2023-02-18T10:44:23.771Z,1.77
2023-02-18T10:48:34.620Z,2.30
2023-02-18T10:52:15.949Z,1.80
2023-02-18T10:55:45.459Z,1.67
2023-02-18T10:59:12.227Z,2.00
2023-02-18T11:02:34.176Z,2.17
2023-02-18T11:05:57.117Z,1.90
2023-02-18T11:09:52.410Z,1.40
2023-02-18T11:13:26.275Z,1.60
2023-02-18T11:16:53.545Z,1.75
2023-02-18T11:20:36.768Z,1.65
2023-02-18T11:24:15.626Z,1.67
2023-02-18T11:28:01.068Z,2.42
2023-02-18T11:31:37.067Z,1.65
2023-02-18T11:34:59.332Z,2.13
2023-02-18T11:38:56.694Z,1.98
2023-02-18T11:42:24.777Z,1.58
2023-02-18T11:45:47.747Z,1.65
2023-02-18T11:49:29.863Z,1.40
2023-02-18T11:52:53.753Z,1.17
2023-02-18T11:56:30.699Z,1.58
2023-02-18T11:59:55.096Z,1.70
2023-02-18T12:03:53.819Z,1.65
2023-02-18T12:07:41.274Z,1.77
2023-02-18T12:11:34.466Z,1.65
2023-02-18T12:14:59.467Z,1.30
2023-02-18T12:18:58.098Z,1.70
2023-02-18T12:22:44.773Z,1.40
2023-02-18T12:26:29.678Z,2.10
2023-02-18T12:29:59.682Z,2.13
2023-02-18T12:33:55.295Z,1.80
2023-02-18T12:38:24.072Z,2.13
2023-02-18T12:42:24.893Z,1.80
2023-02-18T12:46:22.235Z,1.83
2023-02-18T12:50:15.218Z,1.83
2023-02-18T12:53:50.068Z,2.17
2023-02-18T12:57:19.924Z,2.38
2023-02-18T13:01:01.620Z,2.63
2023-02-18T13:04:57.070Z,2.00
2023-02-18T13:08:58.987Z,1.77
2023-02-18T13:13:03.699Z,2.38
2023-02-18T13:16:29.199Z,2.30
2023-02-18T13:20:17.088Z,2.75
2023-02-18T13:23:58.794Z,2.63
2023-02-18T13:27:58.616Z,2.40
2023-02-18T13:31:42.670Z,2.08
2023-02-18T13:35:35.235Z,3.55
2023-02-18T13:39:20.542Z,2.55
2023-02-18T13:42:51.600Z,2.72
2023-02-18T13:46:19.083Z,2.30
2023-02-18T13:49:48.521Z,3.03
2023-02-18T13:53:24.350Z,2.95
2023-02-18T13:56:58.031Z,2.92
2023-02-18T14:00:47.559Z,2.60
2023-02-18T14:04:43.314Z,3.40
2023-02-18T14:08:36.177Z,2.60
2023-02-18T14:12:26.185Z,2.65
2023-02-18T14:16:01.732Z,2.88
2023-02-18T14:19:30.537Z,2.53
2023-02-18T14:22:53.193Z,2.17
2023-02-18T14:26:14.944Z,2.50
2023-02-18T14:29:36.858Z,2.63
2023-02-18T14:33:01.912Z,2.38
2023-02-18T14:36:54.549Z,2.50
2023-02-18T14:40:52.779Z,2.78
2023-02-18T14:44:14.506Z,2.90
2023-02-18T14:47:57.766Z,2.88
2023-02-18T14:51:26.906Z,2.40
2023-02-18T14:54:49.877Z,2.70
2023-02-18T14:58:28.153Z,2.10
2023-02-18T15:01:53.411Z,2.67
2023-02-18T15:05:26.620Z,2.47
2023-02-18T15:08:49.405Z,1.95
2023-02-18T15:12:25.882Z,2.70
2023-02-18T15:15:59.986Z,2.20
2023-02-18T15:19:39.787Z,2.40
2023-02-18T15:23:01.961Z,2.70
2023-02-18T15:26:23.871Z,2.70
2023-02-18T15:29:52.283Z,2.63
2023-02-18T15:33:23.555Z,2.92
2023-02-18T15:36:51.053Z,3.08
2023-02-18T15:40:18.847Z,2.60
2023-02-18T15:44:05.851Z,3.55
2023-02-18T15:47:30.201Z,2.92
2023-02-18T15:51:02.793Z,3.00
2023-02-18T15:54:31.805Z,3.10
2023-02-18T15:57:54.789Z,2.97
2023-02-18T16:01:30.471Z,3.50
2023-02-18T16:05:00.293Z,3.55
2023-02-18T16:08:27.716Z,3.25
2023-02-18T16:11:56.975Z,3.83
2023-02-18T16:15:29.997Z,4.65
2023-02-18T16:18:51.956Z,3.75
2023-02-18T16:22:36.488Z,4.40
2023-02-18T16:26:18.843Z,4.43
2023-02-18T16:29:51.033Z,4.68
2023-02-18T16:33:12.939Z,4.93
2023-02-18T16:36:35.125Z,4.80
2023-02-18T16:39:57.643Z,5.33
2023-02-18T16:43:26.785Z,21.20
2023-02-18T16:46:48.814Z,423.77
2023-02-18T16:50:21.079Z,627.97
2023-02-18T16:53:44.645Z,802.23
2023-02-18T16:57:07.400Z,350.00
2023-02-18T17:00:29.483Z,36.47
2023-02-18T17:03:52.461Z,5.90
2023-02-18T17:07:14.582Z,6.40
2023-02-18T17:10:37.375Z,6.07
2023-02-18T17:14:00.019Z,5.83
2023-02-18T17:17:23.518Z,6.40
2023-02-18T17:20:48.261Z,6.70
2023-02-18T17:24:18.931Z,6.47
2023-02-18T17:27:40.839Z,5.95
2023-02-18T17:31:02.791Z,6.13
2023-02-18T17:34:31.085Z,7.40
2023-02-18T17:37:53.469Z,6.47
2023-02-18T17:41:16.041Z,7.55
2023-02-18T17:44:39.883Z,6.53
2023-02-18T17:48:04.048Z,5.97
2023-02-18T17:51:31.407Z,6.00
2023-02-18T17:54:53.179Z,6.70
2023-02-18T17:58:17.714Z,5.88
2023-02-18T18:01:42.284Z,6.03
2023-02-18T18:05:04.563Z,5.43
2023-02-18T18:08:26.415Z,5.75
2023-02-18T18:11:49.247Z,5.32
2023-02-18T18:15:36.646Z,5.30
2023-02-18T18:19:02.510Z,5.40
2023-02-18T18:22:24.314Z,6.53
2023-02-18T18:25:58.980Z,5.55
2023-02-18T18:29:22.871Z,5.40
2023-02-18T18:32:44.734Z,5.33
2023-02-18T18:36:07.434Z,5.50
2023-02-18T18:39:35.241Z,5.23
2023-02-18T18:42:59.995Z,5.37
2023-02-18T18:46:22.942Z,6.13
2023-02-18T18:49:44.849Z,74.30
2023-02-18T18:53:14.533Z,7.47
2023-02-18T18:56:38.409Z,11.97
2023-02-18T19:00:02.315Z,5.83
2023-02-18T19:03:27.151Z,5.53
2023-02-18T19:06:55.757Z,5.50
2023-02-18T19:10:19.789Z,5.67
2023-02-18T19:13:46.789Z,5.23
2023-02-18T19:17:10.984Z,5.50
2023-02-18T19:20:35.968Z,5.37
2023-02-18T19:23:58.016Z,5.80
2023-02-18T19:27:25.851Z,5.90
2023-02-18T19:30:49.720Z,5.57
2023-02-18T19:34:14.366Z,6.00
2023-02-18T19:37:38.334Z,7.70
2023-02-18T19:41:14.938Z,28.87
2023-02-18T19:44:42.545Z,9.60
2023-02-18T19:48:04.408Z,6.40
2023-02-18T19:51:26.778Z,6.93
2023-02-18T19:54:49.035Z,7.03
2023-02-18T19:58:15.808Z,6.07
2023-02-18T20:01:38.716Z,5.87
2023-02-18T20:05:01.853Z,15.83
2023-02-18T20:08:23.735Z,12.73
2023-02-18T20:11:45.790Z,19.83
2023-02-18T20:15:09.087Z,18.00
2023-02-18T20:18:31.703Z,15.80
2023-02-18T20:21:55.901Z,24.70
2023-02-18T20:25:18.154Z,21.83
2023-02-18T20:28:40.874Z,16.73
2023-02-18T20:32:05.836Z,44.40
2023-02-18T20:35:27.708Z,28.40
2023-02-18T20:38:51.918Z,10.43
2023-02-18T20:42:16.875Z,21.20
2023-02-18T20:45:39.017Z,17.10
2023-02-18T20:49:02.002Z,9.60
2023-02-18T20:52:28.996Z,8.70
2023-02-18T20:55:51.772Z,6.20
2023-02-18T20:59:18.142Z,4.70
2023-02-18T21:02:41.928Z,4.37
2023-02-18T21:06:15.143Z,4.47
2023-02-18T21:09:37.145Z,4.50
2023-02-18T21:13:02.072Z,4.83
2023-02-18T21:16:27.901Z,4.53
2023-02-18T21:19:49.791Z,4.83
2023-02-18T21:23:12.560Z,4.50
2023-02-18T21:26:34.598Z,4.77
2023-02-18T21:29:59.873Z,4.10
2023-02-18T21:33:28.739Z,4.90
2023-02-18T21:36:50.543Z,4.40
2023-02-18T21:40:13.386Z,4.20
2023-02-18T21:43:35.167Z,3.93
2023-02-18T21:47:06.090Z,4.00
2023-02-18T21:50:27.883Z,4.20
2023-02-18T21:53:49.701Z,4.20
2023-02-18T21:57:24.106Z,4.27
2023-02-18T22:00:55.928Z,4.23
2023-02-18T22:04:18.156Z,3.67
2023-02-18T22:07:39.937Z,3.60
2023-02-18T22:11:05.593Z,4.63
2023-02-18T22:14:53.708Z,4.70
2023-02-18T22:18:19.269Z,4.50
2023-02-18T22:21:42.262Z,4.43
2023-02-18T22:25:04.725Z,4.73
2023-02-18T22:28:28.630Z,4.60
2023-02-18T22:31:53.704Z,3.93
2023-02-18T22:35:18.724Z,4.53
2023-02-18T22:38:40.541Z,4.80
2023-02-18T22:42:11.398Z,5.57
2023-02-18T22:45:41.095Z,6.47
2023-02-18T22:49:09.302Z,6.50
2023-02-18T22:52:56.880Z,6.27
2023-02-18T22:56:20.928Z,5.30
2023-02-18T22:59:42.749Z,5.60
2023-02-18T23:03:04.526Z,6.23
2023-02-18T23:06:26.398Z,7.53
2023-02-18T23:09:48.262Z,6.90
2023-02-18T23:13:15.091Z,6.77
2023-02-18T23:16:56.417Z,7.23
2023-02-18T23:20:39.571Z,7.00
2023-02-18T23:24:01.391Z,7.17
2023-02-18T23:27:48.449Z,6.83
2023-02-18T23:31:12.592Z,6.97
2023-02-18T23:34:35.691Z,6.10
2023-02-18T23:38:03.183Z,6.80
2023-02-18T23:41:26.780Z,7.50
2023-02-18T23:44:51.631Z,6.57
2023-02-18T23:48:23.468Z,7.37
2023-02-18T23:51:48.043Z,6.80
2023-02-18T23:55:10.578Z,6.80
2023-02-18T23:58:34.183Z,7.37
